Time;durP1;ratioP1;P1;durP2;ratioP2;P2;SDS_P1;SDS_P2;PMS_P1;PMS_P2;Temp;Humidity;BMP_temperature;BMP_pressure;BME280_temperature;BME280_humidity;BME280_pressure;Samples;Min_cycle;Max_cycle;Signal;HPM_P1;HPM_P2
2021/06/01 00:01:18;;;;;;;34.78;13.45;;;11.50;99.90;;;;;;5135847;27;20187;-63
2021/06/01 00:03:44;;;;;;;32.58;12.52;;;11.50;99.90;;;;;;5117351;27;20672;-62
2021/06/01 00:06:10;;;;;;;33.53;11.73;;;11.40;99.90;;;;;;5135698;27;20551;-64
2021/06/01 00:08:36;;;;;;;29.77;11.32;;;11.40;99.90;;;;;;5135876;27;20172;-63
2021/06/01 00:11:02;;;;;;;31.98;12.57;;;11.40;99.90;;;;;;5135562;27;20203;-63
2021/06/01 00:13:29;;;;;;;27.80;11.18;;;11.40;99.90;;;;;;5135064;27;20168;-62
2021/06/01 00:15:55;;;;;;;31.63;12.02;;;11.40;99.90;;;;;;5135536;27;20183;-64
2021/06/01 00:18:21;;;;;;;30.55;12.35;;;11.40;99.90;;;;;;5135614;27;20176;-63
2021/06/01 00:20:47;;;;;;;43.20;12.65;;;11.40;99.90;;;;;;5134818;27;20187;-63
2021/06/01 00:23:13;;;;;;;37.45;11.90;;;11.40;99.90;;;;;;5135026;27;20198;-63
2021/06/01 00:25:39;;;;;;;39.00;14.68;;;11.40;99.90;;;;;;5134505;27;20656;-63
2021/06/01 00:28:05;;;;;;;38.13;12.38;;;11.40;99.90;;;;;;5137026;27;20190;-63
2021/06/01 00:30:32;;;;;;;37.67;12.88;;;11.40;99.90;;;;;;5133605;27;20188;-62
2021/06/01 00:32:58;;;;;;;40.78;16.25;;;11.30;99.90;;;;;;5135001;27;20183;-63
2021/06/01 00:35:24;;;;;;;44.63;15.48;;;11.30;99.90;;;;;;5134976;27;20212;-64
2021/06/01 00:37:50;;;;;;;38.03;14.55;;;11.30;99.90;;;;;;5134885;27;20172;-63
2021/06/01 00:40:16;;;;;;;36.92;13.70;;;11.30;99.90;;;;;;5134888;27;20180;-63
2021/06/01 00:42:42;;;;;;;31.55;13.38;;;11.30;99.90;;;;;;5135360;27;20180;-64
2021/06/01 00:45:09;;;;;;;43.70;17.20;;;11.30;99.90;;;;;;5133870;27;20183;-63
2021/06/01 00:47:35;;;;;;;33.72;12.63;;;11.20;99.90;;;;;;5134021;27;20188;-63
2021/06/01 00:50:02;;;;;;;36.53;13.30;;;11.20;99.90;;;;;;5134947;27;20172;-63
2021/06/01 00:52:28;;;;;;;38.90;13.88;;;11.20;99.90;;;;;;5135539;27;20180;-62
2021/06/01 00:54:54;;;;;;;50.50;18.25;;;11.20;99.90;;;;;;5132998;27;20203;-63
2021/06/01 00:57:20;;;;;;;37.65;14.52;;;11.10;99.90;;;;;;5134688;27;20531;-63
2021/06/01 00:59:46;;;;;;;47.70;21.02;;;11.10;99.90;;;;;;5134838;27;20194;-63
2021/06/01 01:02:12;;;;;;;46.72;15.20;;;11.10;99.90;;;;;;5134908;27;20605;-63
2021/06/01 01:04:39;;;;;;;37.90;16.48;;;11.10;99.90;;;;;;5134574;27;20183;-63
2021/06/01 01:07:23;;;;;;;40.53;14.90;;;11.10;99.90;;;;;;5134547;27;20203;-62
2021/06/01 01:09:49;;;;;;;33.50;14.57;;;11.10;99.90;;;;;;5115937;27;20167;-62
2021/06/01 01:12:21;;;;;;;35.25;15.18;;;11.10;99.90;;;;;;5134606;27;20172;-63
2021/06/01 01:14:53;;;;;;;31.25;13.52;;;11.20;99.90;;;;;;5133794;27;20187;-62
2021/06/01 01:17:25;;;;;;;40.05;13.18;;;11.10;99.90;;;;;;5115601;27;20527;-63
2021/06/01 01:20:07;;;;;;;35.90;14.55;;;11.10;99.90;;;;;;5134437;27;20164;-64
2021/06/01 01:22:39;;;;;;;30.33;13.13;;;11.10;99.90;;;;;;5134196;27;20168;-62
2021/06/01 01:25:17;;;;;;;30.10;11.93;;;11.10;99.90;;;;;;5112469;27;20866;-63
2021/06/01 01:28:10;;;;;;;36.05;14.48;;;11.10;99.90;;;;;;5137285;27;20176;-62
2021/06/01 01:30:42;;;;;;;35.17;13.75;;;11.10;99.90;;;;;;5133781;27;20156;-63
2021/06/01 01:33:19;;;;;;;33.30;14.45;;;11.10;99.90;;;;;;5134442;27;20176;-63
2021/06/01 01:35:47;;;;;;;39.15;13.77;;;11.10;99.90;;;;;;5108365;27;20199;-63
2021/06/01 01:38:13;;;;;;;37.05;14.43;;;11.10;99.90;;;;;;5134909;27;20199;-65
2021/06/01 01:40:40;;;;;;;50.45;15.05;;;11.10;99.90;;;;;;5104454;27;20179;-62
2021/06/01 01:43:10;;;;;;;34.13;14.20;;;11.10;99.90;;;;;;5098402;27;20175;-63
2021/06/01 01:45:40;;;;;;;47.63;15.73;;;11.10;99.90;;;;;;5115855;27;20549;-63
2021/06/01 01:50:59;;;;;;;34.25;13.38;;;11.10;99.90;;;;;;5122064;27;20182;-62
2021/06/01 01:53:25;;;;;;;32.20;14.90;;;11.10;99.90;;;;;;5115832;27;20184;-62
2021/06/01 01:55:51;;;;;;;41.10;15.00;;;11.10;99.90;;;;;;5097125;28;20196;-63
2021/06/01 01:58:18;;;;;;;37.58;14.23;;;11.10;99.90;;;;;;5106017;27;20176;-63
2021/06/01 02:00:44;;;;;;;39.08;14.55;;;11.10;99.90;;;;;;5133489;27;20187;-63
2021/06/01 02:03:10;;;;;;;35.15;14.80;;;11.10;99.90;;;;;;5115045;27;20168;-65
2021/06/01 02:05:38;;;;;;;37.15;15.23;;;11.00;99.90;;;;;;5133376;27;20203;-63
2021/06/01 02:08:07;;;;;;;41.63;15.50;;;11.00;99.90;;;;;;5114063;27;20651;-64
2021/06/01 02:10:33;;;;;;;34.38;15.30;;;11.00;99.90;;;;;;5115515;27;20163;-63
2021/06/01 02:13:00;;;;;;;36.92;16.35;;;11.00;99.90;;;;;;5132879;27;20196;-63
2021/06/01 02:15:26;;;;;;;33.75;14.48;;;11.00;99.90;;;;;;5132616;27;20172;-63
2021/06/01 02:17:52;;;;;;;33.15;15.18;;;11.00;99.90;;;;;;5133280;27;20180;-63
2021/06/01 02:20:18;;;;;;;35.33;15.68;;;11.00;99.90;;;;;;5133339;27;20639;-63
2021/06/01 02:25:43;;;;;;;34.17;14.27;;;11.00;99.90;;;;;;5140115;27;20203;-63
2021/06/01 02:28:22;;;;;;;33.72;14.35;;;11.00;99.90;;;;;;5131819;27;20187;-62
2021/06/01 02:30:55;;;;;;;33.05;13.73;;;11.00;99.90;;;;;;5133067;27;20163;-62
2021/06/01 02:33:23;;;;;;;45.15;13.98;;;11.10;99.90;;;;;;5107912;27;20191;-63
2021/06/01 02:35:49;;;;;;;27.27;13.82;;;11.10;99.90;;;;;;5111013;28;20223;-62
2021/06/01 02:38:15;;;;;;;32.30;13.82;;;11.00;99.90;;;;;;5101782;27;20182;-62
2021/06/01 02:40:41;;;;;;;35.90;14.38;;;11.00;99.90;;;;;;5109512;27;20175;-62
2021/06/01 02:43:09;;;;;;;27.30;13.77;;;11.00;99.90;;;;;;5113725;27;20179;-62
2021/06/01 02:45:37;;;;;;;34.00;14.20;;;11.00;99.90;;;;;;5130695;27;20184;-63
2021/06/01 02:48:06;;;;;;;32.10;14.20;;;11.00;99.90;;;;;;5109794;27;20649;-63
2021/06/01 02:50:33;;;;;;;31.27;14.18;;;11.00;99.90;;;;;;5110392;27;20175;-62
2021/06/01 02:52:59;;;;;;;27.80;13.63;;;10.90;99.90;;;;;;5134155;27;20179;-62
2021/06/01 02:55:26;;;;;;;33.30;14.32;;;10.90;99.90;;;;;;5132639;27;20530;-62
2021/06/01 02:57:52;;;;;;;25.25;13.32;;;10.90;99.90;;;;;;5132143;27;20183;-64
2021/06/01 03:00:20;;;;;;;29.83;13.63;;;11.00;99.90;;;;;;5132563;27;20178;-63
2021/06/01 03:02:47;;;;;;;26.67;13.48;;;11.00;99.90;;;;;;5112926;27;20620;-63
2021/06/01 03:05:13;;;;;;;30.17;14.30;;;11.00;99.90;;;;;;5111099;28;20683;-63
2021/06/01 03:07:40;;;;;;;29.50;15.27;;;11.00;99.90;;;;;;5132481;28;20210;-63
2021/06/01 03:10:09;;;;;;;30.33;14.43;;;11.00;99.90;;;;;;5132037;28;20179;-62
2021/06/01 03:12:39;;;;;;;33.55;14.25;;;11.00;99.90;;;;;;5110143;27;20176;-63
2021/06/01 03:15:07;;;;;;;30.05;14.10;;;11.00;99.90;;;;;;5130911;27;20639;-62
2021/06/01 03:17:33;;;;;;;32.85;14.25;;;11.00;99.90;;;;;;5131596;27;20179;-63
2021/06/01 03:19:59;;;;;;;32.15;15.63;;;11.00;99.90;;;;;;5135975;27;20180;-63
2021/06/01 03:22:25;;;;;;;32.38;13.95;;;11.00;99.90;;;;;;5135929;27;20182;-62
2021/06/01 03:24:51;;;;;;;32.55;13.30;;;11.10;99.90;;;;;;5142541;27;20677;-62
2021/06/01 03:27:17;;;;;;;27.52;13.45;;;11.10;99.90;;;;;;5136718;27;20207;-63
2021/06/01 03:29:44;;;;;;;29.85;14.00;;;11.10;99.90;;;;;;5136121;27;20501;-62
2021/06/01 03:32:10;;;;;;;36.53;14.70;;;11.10;99.90;;;;;;5138870;27;20176;-64
2021/06/01 03:34:36;;;;;;;36.35;15.45;;;11.20;99.90;;;;;;5135206;27;20211;-63
2021/06/01 03:37:02;;;;;;;30.25;14.98;;;11.10;99.90;;;;;;5136047;27;20631;-63
2021/06/01 03:39:30;;;;;;;35.90;13.75;;;11.20;99.90;;;;;;5135625;27;20185;-62
2021/06/01 03:41:57;;;;;;;35.28;14.30;;;11.20;99.90;;;;;;5135284;27;20192;-63
2021/06/01 03:44:23;;;;;;;33.67;13.70;;;11.10;99.90;;;;;;5135540;27;20199;-63
2021/06/01 03:46:49;;;;;;;33.42;13.88;;;11.20;99.90;;;;;;5121884;27;20671;-62
2021/06/01 03:49:15;;;;;;;41.97;14.02;;;11.20;99.90;;;;;;5136731;27;20190;-62
2021/06/01 03:51:41;;;;;;;31.40;15.32;;;11.20;99.90;;;;;;5137124;27;20207;-62
2021/06/01 03:54:07;;;;;;;36.80;15.07;;;11.20;99.90;;;;;;5136080;27;20188;-62
2021/06/01 03:56:37;;;;;;;31.33;14.48;;;11.20;99.90;;;;;;5144012;27;20187;-62
2021/06/01 03:59:05;;;;;;;40.50;14.07;;;11.20;99.90;;;;;;5135832;27;20191;-62
2021/06/01 04:01:32;;;;;;;28.25;13.23;;;11.30;99.90;;;;;;5139900;27;20176;-63
2021/06/01 04:03:58;;;;;;;27.95;14.45;;;11.30;99.90;;;;;;5142791;27;20184;-63
2021/06/01 04:06:24;;;;;;;34.65;14.93;;;11.40;99.90;;;;;;5141883;27;20713;-62
2021/06/01 04:08:50;;;;;;;33.55;13.88;;;11.40;99.90;;;;;;5144353;27;20183;-63
2021/06/01 04:11:16;;;;;;;26.65;13.80;;;11.50;99.90;;;;;;5144559;27;20562;-63
2021/06/01 04:13:42;;;;;;;35.55;14.43;;;11.50;99.90;;;;;;5143954;27;20168;-63
2021/06/01 04:16:08;;;;;;;34.10;13.95;;;11.60;99.90;;;;;;5139805;27;20541;-62
2021/06/01 04:18:34;;;;;;;31.83;13.52;;;11.70;99.90;;;;;;5139998;27;20536;-63
2021/06/01 04:21:00;;;;;;;27.27;13.82;;;11.70;99.90;;;;;;5141996;27;20651;-64
2021/06/01 04:23:27;;;;;;;32.67;14.43;;;11.80;99.90;;;;;;5142007;27;20176;-63
2021/06/01 04:25:53;;;;;;;27.85;13.80;;;11.80;99.90;;;;;;5140294;27;20176;-62
2021/06/01 04:28:19;;;;;;;28.52;13.52;;;11.80;99.90;;;;;;5145805;27;20628;-62
2021/06/01 04:30:45;;;;;;;27.25;14.40;;;11.80;99.90;;;;;;5144174;27;20174;-63
2021/06/01 04:33:12;;;;;;;32.67;14.20;;;11.90;99.90;;;;;;5140104;27;20176;-63
2021/06/01 04:35:38;;;;;;;29.38;14.05;;;12.00;99.90;;;;;;5136792;27;20208;-62
2021/06/01 04:38:04;;;;;;;33.33;14.57;;;12.00;99.90;;;;;;5141447;27;20179;-63
2021/06/01 04:40:32;;;;;;;37.38;13.68;;;12.00;99.90;;;;;;5142460;27;20191;-63
2021/06/01 04:42:58;;;;;;;36.13;13.82;;;12.10;99.90;;;;;;5139785;27;20164;-64
2021/06/01 04:45:24;;;;;;;25.25;13.48;;;12.10;99.90;;;;;;5142847;27;20650;-63
2021/06/01 04:47:50;;;;;;;26.40;14.07;;;12.20;99.90;;;;;;5143388;27;20672;-63
2021/06/01 04:50:17;;;;;;;32.28;13.60;;;12.20;99.90;;;;;;5140622;27;20624;-63
2021/06/01 04:52:43;;;;;;;28.90;12.75;;;12.30;99.90;;;;;;5125640;27;20172;-63
2021/06/01 04:55:10;;;;;;;33.45;13.55;;;12.30;99.90;;;;;;5125993;27;20164;-63
2021/06/01 04:57:40;;;;;;;33.10;13.52;;;12.30;99.90;;;;;;5118745;27;20160;-62
2021/06/01 05:00:07;;;;;;;29.10;14.57;;;12.40;99.90;;;;;;5142360;27;20172;-63
2021/06/01 05:02:33;;;;;;;23.52;14.35;;;12.40;99.90;;;;;;5136795;27;20183;-63
2021/06/01 05:04:59;;;;;;;27.80;14.20;;;12.50;99.90;;;;;;5138284;27;20176;-63
2021/06/01 05:07:26;;;;;;;23.10;12.60;;;12.50;99.90;;;;;;5134051;27;20664;-62
2021/06/01 05:09:52;;;;;;;26.10;13.43;;;12.60;99.90;;;;;;5135722;27;20168;-62
2021/06/01 05:12:18;;;;;;;29.08;13.52;;;12.60;99.90;;;;;;5138550;27;20172;-62
2021/06/01 05:14:44;;;;;;;24.92;13.55;;;12.60;99.90;;;;;;5138952;27;20163;-62
2021/06/01 05:17:10;;;;;;;31.77;13.50;;;12.70;99.90;;;;;;5140822;27;20538;-62
2021/06/01 05:19:36;;;;;;;22.33;13.00;;;12.80;99.90;;;;;;5137423;27;20180;-62
2021/06/01 05:22:03;;;;;;;39.75;12.88;;;12.90;99.90;;;;;;5140760;27;20190;-62
2021/06/01 05:24:29;;;;;;;34.95;13.40;;;12.90;99.90;;;;;;5124981;27;20194;-63
2021/06/01 05:26:55;;;;;;;35.30;14.13;;;12.90;99.90;;;;;;5138691;27;20218;-63
2021/06/01 05:29:21;;;;;;;33.05;13.23;;;13.00;99.90;;;;;;5135869;27;20171;-63
2021/06/01 05:31:54;;;;;;;34.35;13.48;;;13.00;99.90;;;;;;5137276;27;20242;-63
2021/06/01 05:34:23;;;;;;;30.77;13.32;;;13.00;99.90;;;;;;5140054;27;20222;-63
2021/06/01 05:36:49;;;;;;;28.17;13.40;;;13.00;99.90;;;;;;5137905;27;20204;-63
2021/06/01 05:39:15;;;;;;;29.38;12.30;;;13.10;99.90;;;;;;5140344;27;20196;-63
2021/06/01 05:41:42;;;;;;;28.13;13.30;;;13.10;99.90;;;;;;5134094;27;20214;-64
2021/06/01 05:44:08;;;;;;;33.40;12.85;;;13.20;99.90;;;;;;5135849;27;20855;-63
2021/06/01 05:46:34;;;;;;;24.52;12.07;;;13.30;99.90;;;;;;5113057;27;20223;-63
2021/06/01 05:49:01;;;;;;;34.88;12.75;;;13.30;99.90;;;;;;5141546;27;20179;-62
2021/06/01 05:51:35;;;;;;;25.20;12.02;;;13.30;99.90;;;;;;5137469;27;20187;-63
2021/06/01 05:54:02;;;;;;;201.52;19.52;;;13.40;99.90;;;;;;5135269;27;20195;-63
2021/06/01 05:56:29;;;;;;;52.53;12.77;;;13.50;99.90;;;;;;5142503;27;20179;-61
2021/06/01 05:58:55;;;;;;;40.55;12.38;;;13.60;99.90;;;;;;5140387;27;20171;-61
2021/06/01 06:01:21;;;;;;;37.13;12.25;;;13.70;99.90;;;;;;5133917;27;20339;-61
2021/06/01 06:03:47;;;;;;;38.45;12.38;;;13.80;99.90;;;;;;5115988;27;20187;-61
2021/06/01 06:06:15;;;;;;;27.73;10.27;;;13.90;99.90;;;;;;5134844;27;20187;-61
2021/06/01 06:08:41;;;;;;;18.15;9.20;;;14.10;99.90;;;;;;5132353;27;20176;-62
2021/06/01 06:11:08;;;;;;;18.17;9.50;;;14.20;99.90;;;;;;5130696;27;20168;-62
2021/06/01 06:13:35;;;;;;;15.38;7.53;;;14.30;99.90;;;;;;5110332;27;20546;-62
2021/06/01 06:16:02;;;;;;;22.48;8.45;;;14.50;99.90;;;;;;5131858;27;20190;-62
2021/06/01 06:18:31;;;;;;;14.13;7.65;;;14.60;99.90;;;;;;5132180;27;20677;-62
2021/06/01 06:21:01;;;;;;;16.63;8.02;;;14.70;99.90;;;;;;5131929;27;20188;-61
2021/06/01 06:23:29;;;;;;;16.13;7.82;;;14.80;99.90;;;;;;5124621;27;20663;-62
2021/06/01 06:25:55;;;;;;;14.98;7.32;;;15.00;99.90;;;;;;5128918;27;20195;-62
2021/06/01 06:28:21;;;;;;;19.55;7.65;;;15.10;99.90;;;;;;5131900;27;20203;-61
2021/06/01 06:30:47;;;;;;;57.80;8.35;;;15.20;99.90;;;;;;5131927;27;20533;-62
2021/06/01 06:33:13;;;;;;;13.10;7.20;;;15.40;99.90;;;;;;5132353;27;20182;-61
2021/06/01 06:35:39;;;;;;;11.50;6.28;;;15.60;99.90;;;;;;5128349;27;20211;-61
2021/06/01 06:38:05;;;;;;;20.20;6.63;;;15.80;99.90;;;;;;5134647;27;20183;-61
2021/06/01 06:40:31;;;;;;;16.63;6.18;;;15.90;99.90;;;;;;5136554;27;20179;-61
2021/06/01 06:42:57;;;;;;;12.20;6.03;;;16.20;99.90;;;;;;5115466;27;20188;-61
2021/06/01 06:45:25;;;;;;;9.65;5.07;;;16.30;99.90;;;;;;5135045;27;20168;-61
2021/06/01 06:50:19;;;;;;;10.85;5.82;;;16.30;99.90;;;;;;5131260;27;20172;-62
2021/06/01 06:52:45;;;;;;;12.00;5.70;;;16.40;99.90;;;;;;5130479;27;20184;-62
2021/06/01 06:55:12;;;;;;;15.35;5.40;;;16.50;99.90;;;;;;5131687;27;20647;-62
2021/06/01 06:57:39;;;;;;;9.88;4.50;;;16.60;99.90;;;;;;5131262;27;20179;-62
2021/06/01 07:00:15;;;;;;;8.77;5.50;;;16.80;99.90;;;;;;5130021;27;20216;-63
2021/06/01 07:02:42;;;;;;;9.02;5.30;;;16.70;99.90;;;;;;5132025;27;20202;-62
2021/06/01 07:05:10;;;;;;;8.65;5.13;;;16.80;99.90;;;;;;5132905;27;20176;-62
2021/06/01 07:07:36;;;;;;;10.52;5.03;;;16.90;99.90;;;;;;5131208;27;20212;-62
2021/06/01 07:10:04;;;;;;;12.52;5.50;;;16.90;99.90;;;;;;5131881;27;20171;-61
2021/06/01 07:12:30;;;;;;;13.45;4.25;;;17.00;99.90;;;;;;5128585;28;20211;-63
2021/06/01 07:15:10;;;;;;;12.63;4.63;;;17.10;99.90;;;;;;5133531;27;20179;-62
2021/06/01 07:17:42;;;;;;;8.50;5.10;;;17.30;99.90;;;;;;5130701;27;20526;-62
2021/06/01 07:20:11;;;;;;;11.45;4.68;;;17.50;99.60;;;;;;5130032;27;20170;-62
2021/06/01 07:22:37;;;;;;;18.50;4.70;;;17.60;99.90;;;;;;5131122;27;20190;-62
2021/06/01 07:25:04;;;;;;;8.43;4.30;;;17.70;97.60;;;;;;5102902;27;20190;-61
2021/06/01 07:27:30;;;;;;;8.30;4.15;;;17.90;96.80;;;;;;5131911;27;20211;-61
2021/06/01 07:29:56;;;;;;;14.15;3.97;;;17.90;96.60;;;;;;5134873;27;20180;-60
2021/06/01 07:32:22;;;;;;;8.32;3.83;;;18.10;96.10;;;;;;5131566;27;20175;-61
2021/06/01 07:34:48;;;;;;;7.35;3.70;;;18.30;94.20;;;;;;5131525;27;20204;-61
2021/06/01 07:37:16;;;;;;;13.73;3.50;;;18.40;95.00;;;;;;5131888;27;20559;-61
2021/06/01 07:39:43;;;;;;;5.63;3.15;;;18.40;91.50;;;;;;5131208;27;20179;-61
2021/06/01 07:42:09;;;;;;;10.13;3.30;;;18.40;91.10;;;;;;5132247;27;20176;-63
2021/06/01 07:44:35;;;;;;;21.77;3.70;;;18.50;92.90;;;;;;5129945;27;20176;-61
2021/06/01 07:47:02;;;;;;;5.70;3.17;;;18.60;92.00;;;;;;5130829;27;20203;-61
2021/06/01 07:49:28;;;;;;;6.45;3.22;;;18.70;91.50;;;;;;5111824;28;20184;-62
2021/06/01 07:51:54;;;;;;;5.60;3.33;;;18.70;90.90;;;;;;5131428;28;20651;-61
2021/06/01 07:54:20;;;;;;;4.97;3.00;;;18.80;92.00;;;;;;5131850;28;20211;-62
2021/06/01 07:56:46;;;;;;;5.40;3.20;;;19.00;91.30;;;;;;5131887;28;20168;-62
2021/06/01 07:59:12;;;;;;;6.78;3.30;;;19.10;91.50;;;;;;5131587;28;20168;-62
2021/06/01 08:01:39;;;;;;;6.78;3.25;;;19.30;89.10;;;;;;5131434;27;20183;-61
2021/06/01 08:04:05;;;;;;;6.15;3.05;;;19.40;90.00;;;;;;5138061;27;20168;-62
2021/06/01 08:06:36;;;;;;;4.82;3.10;;;19.50;88.00;;;;;;5136691;27;20993;-61
2021/06/01 08:09:05;;;;;;;4.80;2.70;;;19.60;85.20;;;;;;5150472;27;20178;-61
2021/06/01 08:11:31;;;;;;;7.13;3.15;;;19.40;84.70;;;;;;5134681;27;20171;-61
2021/06/01 08:13:57;;;;;;;6.40;2.80;;;19.20;86.70;;;;;;5135586;27;20184;-62
2021/06/01 08:16:23;;;;;;;6.30;3.40;;;19.30;87.00;;;;;;5135856;27;20171;-61
2021/06/01 08:19:03;;;;;;;5.75;2.50;;;19.20;84.70;;;;;;5135760;27;20179;-61
2021/06/01 08:21:45;;;;;;;3.90;2.78;;;19.40;85.60;;;;;;5134750;27;20187;-61
2021/06/01 08:24:11;;;;;;;5.55;2.55;;;19.60;85.40;;;;;;5116345;27;20188;-61
2021/06/01 08:26:37;;;;;;;2.60;2.20;;;19.90;81.90;;;;;;5124369;27;20195;-61
2021/06/01 08:29:03;;;;;;;4.18;2.63;;;20.20;82.90;;;;;;5124582;27;20207;-61
2021/06/01 08:31:29;;;;;;;2.63;2.10;;;20.50;83.00;;;;;;5134475;27;20215;-61
2021/06/01 08:33:55;;;;;;;10.73;1.90;;;21.00;81.70;;;;;;5134175;27;20558;-60
2021/06/01 08:36:23;;;;;;;5.40;2.30;;;21.70;71.50;;;;;;5134979;27;20176;-60
2021/06/01 08:38:50;;;;;;;8.70;2.20;;;22.20;69.20;;;;;;5135655;27;20655;-60
2021/06/01 08:41:17;;;;;;;2.20;1.50;;;22.70;68.50;;;;;;5132745;27;20180;-60
2021/06/01 08:43:43;;;;;;;5.18;1.83;;;23.40;65.40;;;;;;5126231;27;20167;-60
2021/06/01 08:46:10;;;;;;;3.17;1.90;;;23.70;67.70;;;;;;5134890;27;20184;-60
2021/06/01 08:48:37;;;;;;;5.97;1.80;;;23.40;59.20;;;;;;5135340;27;20208;-61
2021/06/01 08:51:06;;;;;;;1.95;1.73;;;23.20;60.50;;;;;;5137572;27;20167;-60
2021/06/01 08:53:33;;;;;;;4.18;1.83;;;22.50;58.80;;;;;;5136573;27;20195;-60
2021/06/01 08:55:59;;;;;;;3.30;1.92;;;22.00;60.80;;;;;;5115937;27;20172;-61
2021/06/01 08:58:26;;;;;;;4.53;1.75;;;21.80;65.10;;;;;;5140624;27;20175;-61
2021/06/01 09:00:52;;;;;;;5.68;2.10;;;21.70;68.30;;;;;;5141114;27;20174;-60
2021/06/01 09:03:20;;;;;;;5.53;1.60;;;21.30;67.90;;;;;;5143113;27;20175;-62
2021/06/01 09:06:30;;;;;;;2.80;1.88;;;21.20;72.00;;;;;;5116592;27;20172;-61
2021/06/01 09:22:39;;;;;;;9.43;2.10;;;21.00;69.10;;;;;;5149515;27;20166;-61
2021/06/01 09:25:12;;;;;;;3.45;1.75;;;21.50;65.90;;;;;;5142138;27;20183;-60
2021/06/01 09:27:48;;;;;;;4.25;1.67;;;22.10;63.90;;;;;;5118901;27;20215;-60
2021/06/01 09:30:36;;;;;;;5.07;1.70;;;22.10;60.90;;;;;;5144758;27;20168;-60
2021/06/01 09:33:03;;;;;;;3.28;1.70;;;22.90;60.20;;;;;;5141367;27;20179;-60
2021/06/01 09:35:45;;;;;;;7.80;1.63;;;22.90;58.00;;;;;;5143225;27;20220;-60
2021/06/01 09:38:12;;;;;;;9.00;1.77;;;22.70;58.50;;;;;;5124532;27;20179;-61
2021/06/01 09:40:39;;;;;;;2.38;1.50;;;22.60;60.20;;;;;;5142211;27;20635;-61
2021/06/01 09:43:09;;;;;;;2.28;1.58;;;22.60;57.70;;;;;;5124019;27;20188;-60
2021/06/01 09:45:35;;;;;;;3.67;1.70;;;22.90;59.40;;;;;;5140944;27;20600;-60
2021/06/01 09:48:05;;;;;;;6.22;1.90;;;22.90;59.50;;;;;;5138973;27;20212;-60
2021/06/01 09:53:16;;;;;;;5.18;1.58;;;22.70;57.50;;;;;;5144445;27;20206;-61
2021/06/01 09:55:46;;;;;;;2.40;1.67;;;23.20;57.80;;;;;;5141340;27;20167;-61
2021/06/01 09:58:15;;;;;;;21.95;2.28;;;23.60;57.00;;;;;;5138502;27;20183;-61
2021/06/01 10:00:43;;;;;;;6.30;1.48;;;24.10;58.10;;;;;;5138373;27;20603;-60
2021/06/01 10:03:17;;;;;;;2.28;1.60;;;24.20;54.80;;;;;;5123760;27;20185;-61
2021/06/01 10:05:44;;;;;;;3.60;1.90;;;23.90;58.20;;;;;;5135580;27;20167;-61
2021/06/01 10:08:17;;;;;;;2.97;1.80;;;23.20;59.90;;;;;;5140844;27;20212;-60
2021/06/01 10:11:08;;;;;;;22.13;2.30;;;23.20;58.50;;;;;;5136763;27;20180;-61
2021/06/01 10:13:35;;;;;;;2.22;1.85;;;23.10;62.60;;;;;;5115822;27;20164;-61
2021/06/01 10:16:02;;;;;;;4.68;1.60;;;23.00;59.00;;;;;;5133241;27;20175;-61
2021/06/01 10:18:29;;;;;;;6.10;1.77;;;23.00;59.10;;;;;;5132617;27;20183;-61
2021/06/01 10:21:03;;;;;;;5.75;1.58;;;23.00;59.50;;;;;;5133562;27;20530;-61
2021/06/01 10:23:35;;;;;;;5.18;1.73;;;23.20;58.80;;;;;;5133510;27;20172;-60
2021/06/01 10:26:02;;;;;;;2.95;1.85;;;23.40;58.30;;;;;;5132800;27;20207;-61
2021/06/01 10:28:39;;;;;;;5.07;1.70;;;23.30;59.30;;;;;;5140688;27;20218;-61
2021/06/01 10:31:06;;;;;;;3.97;2.10;;;23.00;59.20;;;;;;5133126;27;20658;-61
2021/06/01 10:33:42;;;;;;;2.97;1.70;;;22.80;60.60;;;;;;5133606;27;20190;-60
2021/06/01 10:52:20;;;;;;;0.98;0.80;;;24.50;53.30;;;;;;5146186;27;20168;-60
2021/06/01 10:54:50;;;;;;;1.15;0.80;;;25.00;52.40;;;;;;5133155;27;20194;-59
2021/06/01 10:57:17;;;;;;;2.65;0.75;;;25.60;51.10;;;;;;5134082;27;20183;-61
2021/06/01 10:59:47;;;;;;;3.25;0.90;;;25.20;51.40;;;;;;5123384;27;20190;-61
2021/06/01 11:02:13;;;;;;;2.45;0.88;;;24.50;53.90;;;;;;5136696;27;20638;-61
2021/06/01 11:05:01;;;;;;;1.58;0.90;;;24.60;50.60;;;;;;5123850;27;20208;-60
2021/06/01 11:07:39;;;;;;;1.15;0.70;;;24.30;52.10;;;;;;5124440;27;20616;-60
2021/06/01 11:10:05;;;;;;;3.08;0.80;;;24.10;51.60;;;;;;5125349;27;20629;-63
2021/06/01 11:12:39;;;;;;;3.08;0.90;;;23.80;52.00;;;;;;5127687;28;20195;-60
2021/06/01 11:15:22;;;;;;;1.92;0.95;;;23.20;52.40;;;;;;5132182;28;20537;-61
2021/06/01 11:17:48;;;;;;;1.02;0.80;;;23.30;54.10;;;;;;5130856;28;20198;-60
2021/06/01 11:33:54;;;;;;;19.15;1.73;;;24.10;54.60;;;;;;5131200;27;20639;-63
2021/06/01 11:36:21;;;;;;;3.25;1.10;;;23.70;53.90;;;;;;5130291;28;20183;-61
2021/06/01 11:39:00;;;;;;;1.55;1.15;;;24.00;54.70;;;;;;5131517;27;20180;-61
2021/06/01 11:44:28;;;;;;;2.92;1.25;;;24.00;54.40;;;;;;5044121;28;20183;-59
2021/06/01 11:47:28;;;;;;;1.63;1.30;;;24.00;53.20;;;;;;5142189;27;20160;-61
2021/06/01 11:52:38;;;;;;;7.03;1.70;;;24.20;53.50;;;;;;5144479;27;20277;-61
2021/06/01 11:55:05;;;;;;;2.60;1.33;;;23.50;54.40;;;;;;5144684;27;20558;-61
2021/06/01 11:57:42;;;;;;;5.38;1.58;;;23.10;55.20;;;;;;5143557;27;20187;-61
2021/06/01 12:03:01;;;;;;;1.73;1.40;;;22.60;56.90;;;;;;5146394;27;20208;-61
2021/06/01 12:19:04;;;;;;;12.00;1.30;;;24.20;52.40;;;;;;5125775;27;20552;-62
2021/06/01 12:21:50;;;;;;;4.80;1.10;;;24.40;52.20;;;;;;5122712;27;20168;-61
2021/06/01 12:24:20;;;;;;;6.68;1.30;;;24.20;52.00;;;;;;5139964;27;20187;-62
2021/06/01 12:32:17;;;;;;;3.08;1.35;;;24.10;53.10;;;;;;5148419;27;20190;-61
2021/06/01 13:14:17;;;;;;;22.33;2.47;;;23.40;51.40;;;;;;5148257;27;20179;-61
2021/06/01 13:19:39;;;;;;;10.77;1.40;;;23.10;53.00;;;;;;5146747;27;20166;-61
2021/06/01 13:22:52;;;;;;;6.03;1.10;;;23.20;53.00;;;;;;5142022;27;20167;-61
2021/06/01 13:40:53;;;;;;;7.45;1.88;;;23.10;49.40;;;;;;5139417;27;20176;-62
2021/06/01 13:46:13;;;;;;;8.63;1.38;;;23.00;49.90;;;;;;5136509;27;20183;-62
2021/06/01 13:48:56;;;;;;;5.88;1.13;;;23.00;48.80;;;;;;5108556;27;20218;-62
2021/06/01 13:51:45;;;;;;;3.03;1.30;;;23.20;49.40;;;;;;5140086;27;20163;-63
2021/06/01 13:57:05;;;;;;;1.02;0.90;;;23.30;48.70;;;;;;5143904;27;20178;-61
2021/06/01 14:31:51;;;;;;;3.22;1.30;;;23.10;49.20;;;;;;5122628;27;20163;-62
2021/06/01 15:04:45;;;;;;;1.92;0.73;;;22.50;47.80;;;;;;5144662;27;20531;-61
2021/06/01 15:48:09;;;;;;;30.67;2.50;;;21.40;52.80;;;;;;5138808;27;20171;-61
2021/06/01 15:50:39;;;;;;;14.98;1.38;;;21.20;53.50;;;;;;5114137;28;20199;-59
2021/06/01 16:23:45;;;;;;;19.23;12.80;;;21.40;51.20;;;;;;5138836;27;20531;-57
2021/06/01 16:31:48;;;;;;;138.15;125.45;;;20.90;50.80;;;;;;5141642;27;20171;-59
2021/06/01 16:42:43;;;;;;;2.63;2.40;;;20.40;51.40;;;;;;5126843;27;20179;-58
2021/06/01 17:04:37;;;;;;;10.68;1.25;;;20.40;49.50;;;;;;5141694;27;20178;-59
2021/06/01 17:07:21;;;;;;;6.53;1.40;;;20.40;49.50;;;;;;5129333;27;20261;-58
2021/06/01 17:12:45;;;;;;;13.35;1.73;;;20.20;49.60;;;;;;5126077;27;20170;-58
2021/06/01 17:15:13;;;;;;;5.70;1.30;;;20.10;49.10;;;;;;5109217;27;20530;-57
2021/06/01 17:17:44;;;;;;;5.43;1.30;;;19.90;49.00;;;;;;5136550;27;20500;-59
2021/06/01 17:36:05;;;;;;;3.70;1.08;;;19.30;52.40;;;;;;5125705;27;20191;-58
2021/06/01 17:38:31;;;;;;;1.95;1.00;;;19.20;49.90;;;;;;5134110;27;20527;-58
2021/06/01 17:41:00;;;;;;;3.67;1.23;;;19.20;50.40;;;;;;5134477;27;20184;-58
2021/06/01 17:43:29;;;;;;;2.03;0.90;;;19.20;51.80;;;;;;5136640;27;20190;-58
2021/06/01 17:45:55;;;;;;;3.30;1.60;;;19.20;50.70;;;;;;5136770;27;20523;-58
2021/06/01 17:48:35;;;;;;;5.43;1.10;;;19.30;51.50;;;;;;5121512;27;20175;-58
2021/06/01 17:51:05;;;;;;;3.40;1.30;;;19.30;51.30;;;;;;5133702;27;20171;-58
2021/06/01 17:53:42;;;;;;;1.88;1.02;;;19.30;51.30;;;;;;5134599;27;20550;-58
2021/06/01 17:56:10;;;;;;;2.25;0.98;;;19.20;52.80;;;;;;5117694;27;20164;-59
2021/06/01 17:58:36;;;;;;;4.72;1.25;;;19.30;52.40;;;;;;5116004;27;20547;-58
2021/06/01 18:01:02;;;;;;;4.18;1.20;;;19.30;51.90;;;;;;5134099;27;20183;-58
2021/06/01 18:03:28;;;;;;;2.53;0.90;;;19.30;52.60;;;;;;5134602;27;20175;-57
2021/06/01 18:05:55;;;;;;;4.32;1.00;;;19.20;50.70;;;;;;5114552;27;20211;-61
2021/06/01 18:36:03;;;;;;;4.43;0.90;;;18.30;53.30;;;;;;5119887;27;20230;-58
2021/06/01 18:40:55;;;;;;;16.92;1.10;;;18.30;53.10;;;;;;5132573;27;20636;-59
2021/06/01 19:24:31;;;;;;;4.28;0.98;;;17.40;58.70;;;;;;5133062;27;20180;-60
2021/06/01 19:51:19;;;;;;;1.33;0.98;;;16.70;63.30;;;;;;5121333;27;20702;-59